ADDS METAR Data

Data at: 1827 UTC 20 Jul 2018

METAR for:KMQE (Milton/Blue Hills Ob, MA, US)
Text:KMQE 201756Z AUTO 08012G16KT 28/13 A3017 RMK AO1 SLP222 T02780128 10278 20189 58007
Temperature: 27.8°C ( 82°F)
Dewpoint: 12.8°C ( 55°F) [RH = 40%]
Pressure (altimeter):30.17 inches Hg (1021.8 mb) [Sea level pressure: 1022.2 mb]
Winds:from the E (80 degrees) at 14 MPH (12 knots; 6.2 m/s) gusting to 18 MPH (16 knots; 8.2 m/s)
QC Flag:automated observation with no human augmentation